sensor_id;sensor_type;location;lat;lon;timestamp;temperature;humidity
975;DHT22;6115;49.296;10.602;2022-09-16T00:02:56;13.50;84.80
975;DHT22;6115;49.296;10.602;2022-09-16T00:07:57;13.50;84.40
975;DHT22;6115;49.296;10.602;2022-09-16T00:12:58;13.50;84.20
975;DHT22;6115;49.296;10.602;2022-09-16T00:17:58;13.50;84.00
975;DHT22;6115;49.296;10.602;2022-09-16T00:22:59;13.50;83.70
975;DHT22;6115;49.296;10.602;2022-09-16T00:27:59;13.50;83.60
975;DHT22;6115;49.296;10.602;2022-09-16T00:33:00;13.60;83.70
975;DHT22;6115;49.296;10.602;2022-09-16T00:38:00;13.60;83.70
975;DHT22;6115;49.296;10.602;2022-09-16T00:43:01;13.60;83.60
975;DHT22;6115;49.296;10.602;2022-09-16T00:48:05;13.60;83.60
975;DHT22;6115;49.296;10.602;2022-09-16T00:53:09;13.60;83.50
975;DHT22;6115;49.296;10.602;2022-09-16T00:58:25;13.60;83.80
975;DHT22;6115;49.296;10.602;2022-09-16T01:03:29;13.50;83.80
975;DHT22;6115;49.296;10.602;2022-09-16T01:08:30;13.50;84.00
975;DHT22;6115;49.296;10.602;2022-09-16T01:13:31;13.50;84.20
975;DHT22;6115;49.296;10.602;2022-09-16T01:30:13;13.40;84.40
975;DHT22;6115;49.296;10.602;2022-09-16T01:35:26;13.50;84.50
975;DHT22;6115;49.296;10.602;2022-09-16T01:45:56;13.50;84.20
975;DHT22;6115;49.296;10.602;2022-09-16T01:56:27;13.50;84.00
975;DHT22;6115;49.296;10.602;2022-09-16T02:02:00;13.50;83.50
975;DHT22;6115;49.296;10.602;2022-09-16T02:07:05;13.40;83.40
975;DHT22;6115;49.296;10.602;2022-09-16T02:12:11;13.50;83.60
975;DHT22;6115;49.296;10.602;2022-09-16T02:17:16;13.50;83.50
975;DHT22;6115;49.296;10.602;2022-09-16T02:22:31;13.50;83.10
975;DHT22;6115;49.296;10.602;2022-09-16T02:27:35;13.40;82.60
975;DHT22;6115;49.296;10.602;2022-09-16T02:32:41;13.30;82.30
975;DHT22;6115;49.296;10.602;2022-09-16T02:37:49;13.30;82.60
975;DHT22;6115;49.296;10.602;2022-09-16T02:42:51;13.30;83.10
975;DHT22;6115;49.296;10.602;2022-09-16T02:48:12;13.40;82.90
975;DHT22;6115;49.296;10.602;2022-09-16T02:58:38;13.20;81.90
975;DHT22;6115;49.296;10.602;2022-09-16T03:03:39;13.20;82.00
975;DHT22;6115;49.296;10.602;2022-09-16T03:08:41;13.10;81.90
975;DHT22;6115;49.296;10.602;2022-09-16T03:19:33;13.20;82.00
975;DHT22;6115;49.296;10.602;2022-09-16T03:25:15;13.20;81.90
975;DHT22;6115;49.296;10.602;2022-09-16T03:30:20;13.20;81.90
975;DHT22;6115;49.296;10.602;2022-09-16T03:35:43;13.30;82.10
975;DHT22;6115;49.296;10.602;2022-09-16T03:40:49;13.30;82.00
975;DHT22;6115;49.296;10.602;2022-09-16T03:45:50;13.20;81.90
975;DHT22;6115;49.296;10.602;2022-09-16T03:50:51;13.10;81.90
975;DHT22;6115;49.296;10.602;2022-09-16T03:55:51;13.00;81.70
975;DHT22;6115;49.296;10.602;2022-09-16T04:00:52;13.00;81.70
975;DHT22;6115;49.296;10.602;2022-09-16T04:05:53;13.00;81.70
975;DHT22;6115;49.296;10.602;2022-09-16T04:10:56;12.90;81.70
975;DHT22;6115;49.296;10.602;2022-09-16T04:15:57;12.90;81.70
975;DHT22;6115;49.296;10.602;2022-09-16T04:20:59;12.90;81.70
975;DHT22;6115;49.296;10.602;2022-09-16T04:26:01;13.00;81.40
975;DHT22;6115;49.296;10.602;2022-09-16T04:31:03;12.90;81.50
975;DHT22;6115;49.296;10.602;2022-09-16T04:36:05;13.00;81.10
975;DHT22;6115;49.296;10.602;2022-09-16T04:41:09;12.90;81.00
975;DHT22;6115;49.296;10.602;2022-09-16T04:46:10;12.90;80.70
975;DHT22;6115;49.296;10.602;2022-09-16T04:51:11;12.90;80.30
975;DHT22;6115;49.296;10.602;2022-09-16T04:56:15;12.80;79.70
975;DHT22;6115;49.296;10.602;2022-09-16T05:01:18;12.90;80.80
975;DHT22;6115;49.296;10.602;2022-09-16T05:06:24;12.80;79.10
975;DHT22;6115;49.296;10.602;2022-09-16T05:11:27;12.80;79.10
975;DHT22;6115;49.296;10.602;2022-09-16T05:16:28;12.70;79.00
975;DHT22;6115;49.296;10.602;2022-09-16T05:21:32;12.80;79.50
975;DHT22;6115;49.296;10.602;2022-09-16T05:26:35;12.90;79.30
975;DHT22;6115;49.296;10.602;2022-09-16T05:31:37;12.70;78.90
975;DHT22;6115;49.296;10.602;2022-09-16T05:36:38;12.70;79.10
975;DHT22;6115;49.296;10.602;2022-09-16T05:41:39;12.70;79.40
975;DHT22;6115;49.296;10.602;2022-09-16T05:46:40;12.70;78.80
975;DHT22;6115;49.296;10.602;2022-09-16T05:51:40;12.70;79.10
975;DHT22;6115;49.296;10.602;2022-09-16T05:56:41;12.80;78.50
975;DHT22;6115;49.296;10.602;2022-09-16T06:01:42;12.90;79.00
975;DHT22;6115;49.296;10.602;2022-09-16T06:06:45;12.90;79.00
975;DHT22;6115;49.296;10.602;2022-09-16T06:11:48;12.90;78.80
975;DHT22;6115;49.296;10.602;2022-09-16T06:16:49;12.90;77.60
975;DHT22;6115;49.296;10.602;2022-09-16T06:21:50;12.70;76.60
975;DHT22;6115;49.296;10.602;2022-09-16T06:26:50;12.80;76.70
975;DHT22;6115;49.296;10.602;2022-09-16T06:31:51;12.90;77.20
975;DHT22;6115;49.296;10.602;2022-09-16T06:36:51;12.90;77.10
975;DHT22;6115;49.296;10.602;2022-09-16T06:41:52;13.00;77.00
975;DHT22;6115;49.296;10.602;2022-09-16T06:46:52;12.90;76.30
975;DHT22;6115;49.296;10.602;2022-09-16T06:51:53;12.70;76.60
975;DHT22;6115;49.296;10.602;2022-09-16T06:56:53;12.70;76.60
975;DHT22;6115;49.296;10.602;2022-09-16T07:01:54;12.80;76.70
975;DHT22;6115;49.296;10.602;2022-09-16T07:06:56;12.80;75.70
975;DHT22;6115;49.296;10.602;2022-09-16T07:11:57;12.80;74.60
975;DHT22;6115;49.296;10.602;2022-09-16T07:17:01;12.80;74.00
975;DHT22;6115;49.296;10.602;2022-09-16T07:22:02;12.90;74.30
975;DHT22;6115;49.296;10.602;2022-09-16T07:27:03;13.00;72.60
975;DHT22;6115;49.296;10.602;2022-09-16T07:32:03;13.10;72.20
975;DHT22;6115;49.296;10.602;2022-09-16T07:37:04;13.20;72.30
975;DHT22;6115;49.296;10.602;2022-09-16T07:42:04;13.40;72.70
975;DHT22;6115;49.296;10.602;2022-09-16T07:47:06;13.40;71.40
975;DHT22;6115;49.296;10.602;2022-09-16T07:52:06;12.90;71.00
975;DHT22;6115;49.296;10.602;2022-09-16T07:57:07;12.90;72.00
975;DHT22;6115;49.296;10.602;2022-09-16T08:02:08;13.20;71.00
975;DHT22;6115;49.296;10.602;2022-09-16T08:07:09;13.20;70.70
975;DHT22;6115;49.296;10.602;2022-09-16T08:12:09;13.30;71.40
975;DHT22;6115;49.296;10.602;2022-09-16T08:17:10;13.40;69.40
975;DHT22;6115;49.296;10.602;2022-09-16T08:22:11;13.20;69.50
975;DHT22;6115;49.296;10.602;2022-09-16T08:27:11;13.00;69.20
975;DHT22;6115;49.296;10.602;2022-09-16T08:32:12;13.20;69.90
975;DHT22;6115;49.296;10.602;2022-09-16T08:37:12;13.60;69.50
975;DHT22;6115;49.296;10.602;2022-09-16T08:42:35;13.80;67.10
975;DHT22;6115;49.296;10.602;2022-09-16T08:52:43;14.10;65.50
975;DHT22;6115;49.296;10.602;2022-09-16T08:57:57;14.10;63.40
975;DHT22;6115;49.296;10.602;2022-09-16T09:18:52;14.10;61.40
975;DHT22;6115;49.296;10.602;2022-09-16T09:24:29;14.00;61.20
975;DHT22;6115;49.296;10.602;2022-09-16T09:29:40;14.00;60.30
975;DHT22;6115;49.296;10.602;2022-09-16T09:34:56;14.00;61.00
975;DHT22;6115;49.296;10.602;2022-09-16T09:45:23;14.20;60.50
975;DHT22;6115;49.296;10.602;2022-09-16T09:50:29;14.10;59.80
975;DHT22;6115;49.296;10.602;2022-09-16T09:55:37;14.10;59.90
975;DHT22;6115;49.296;10.602;2022-09-16T10:00:37;14.10;62.40
975;DHT22;6115;49.296;10.602;2022-09-16T10:05:38;14.50;62.80
975;DHT22;6115;49.296;10.602;2022-09-16T10:10:52;14.40;61.00
975;DHT22;6115;49.296;10.602;2022-09-16T10:16:05;14.60;60.80
975;DHT22;6115;49.296;10.602;2022-09-16T10:21:13;14.60;58.50
975;DHT22;6115;49.296;10.602;2022-09-16T10:26:26;14.50;58.30
975;DHT22;6115;49.296;10.602;2022-09-16T10:31:33;14.50;58.30
975;DHT22;6115;49.296;10.602;2022-09-16T10:36:34;14.50;58.90
975;DHT22;6115;49.296;10.602;2022-09-16T10:41:42;14.90;59.50
975;DHT22;6115;49.296;10.602;2022-09-16T10:46:51;14.90;56.90
975;DHT22;6115;49.296;10.602;2022-09-16T10:51:52;14.70;58.40
975;DHT22;6115;49.296;10.602;2022-09-16T10:56:53;14.60;58.50
975;DHT22;6115;49.296;10.602;2022-09-16T11:02:26;14.60;59.90
975;DHT22;6115;49.296;10.602;2022-09-16T11:23:40;14.10;65.20
975;DHT22;6115;49.296;10.602;2022-09-16T12:00:16;14.20;64.00
975;DHT22;6115;49.296;10.602;2022-09-16T12:05:24;14.10;65.00
975;DHT22;6115;49.296;10.602;2022-09-16T12:10:38;14.10;65.10
975;DHT22;6115;49.296;10.602;2022-09-16T12:15:58;14.50;63.10
975;DHT22;6115;49.296;10.602;2022-09-16T12:21:27;14.40;62.40
975;DHT22;6115;49.296;10.602;2022-09-16T12:26:34;14.50;62.80
975;DHT22;6115;49.296;10.602;2022-09-16T12:31:43;14.50;60.70
975;DHT22;6115;49.296;10.602;2022-09-16T12:36:51;14.50;61.90
975;DHT22;6115;49.296;10.602;2022-09-16T13:03:14;13.90;61.30
975;DHT22;6115;49.296;10.602;2022-09-16T13:08:36;14.50;62.50
975;DHT22;6115;49.296;10.602;2022-09-16T13:13:46;14.90;59.10
975;DHT22;6115;49.296;10.602;2022-09-16T13:18:50;15.50;60.00
975;DHT22;6115;49.296;10.602;2022-09-16T13:24:49;15.50;57.20
975;DHT22;6115;49.296;10.602;2022-09-16T13:34:31;15.30;59.40
975;DHT22;6115;49.296;10.602;2022-09-16T13:39:33;15.50;57.80
975;DHT22;6115;49.296;10.602;2022-09-16T13:49:52;15.60;58.80
975;DHT22;6115;49.296;10.602;2022-09-16T13:54:55;16.20;56.30
975;DHT22;6115;49.296;10.602;2022-09-16T14:00:11;15.60;56.20
975;DHT22;6115;49.296;10.602;2022-09-16T14:16:23;16.10;55.70
975;DHT22;6115;49.296;10.602;2022-09-16T14:21:24;16.20;56.00
975;DHT22;6115;49.296;10.602;2022-09-16T14:26:25;16.90;56.00
975;DHT22;6115;49.296;10.602;2022-09-16T14:31:30;17.40;53.60
975;DHT22;6115;49.296;10.602;2022-09-16T14:36:34;16.40;54.50
975;DHT22;6115;49.296;10.602;2022-09-16T14:41:39;15.80;56.70
975;DHT22;6115;49.296;10.602;2022-09-16T14:46:53;15.10;59.00
975;DHT22;6115;49.296;10.602;2022-09-16T14:51:57;14.30;63.40
975;DHT22;6115;49.296;10.602;2022-09-16T14:57:05;13.40;68.60
975;DHT22;6115;49.296;10.602;2022-09-16T15:02:23;12.60;72.30
975;DHT22;6115;49.296;10.602;2022-09-16T15:07:37;10.90;70.00
975;DHT22;6115;49.296;10.602;2022-09-16T15:12:44;10.50;75.80
975;DHT22;6115;49.296;10.602;2022-09-16T15:18:05;10.70;77.50
975;DHT22;6115;49.296;10.602;2022-09-16T15:23:19;11.10;80.30
975;DHT22;6115;49.296;10.602;2022-09-16T15:28:21;11.30;80.70
975;DHT22;6115;49.296;10.602;2022-09-16T15:33:36;11.40;80.10
975;DHT22;6115;49.296;10.602;2022-09-16T15:38:39;11.50;80.20
975;DHT22;6115;49.296;10.602;2022-09-16T15:43:42;11.60;80.30
975;DHT22;6115;49.296;10.602;2022-09-16T15:48:56;11.80;80.10
975;DHT22;6115;49.296;10.602;2022-09-16T15:54:19;12.00;80.70
975;DHT22;6115;49.296;10.602;2022-09-16T15:59:31;12.10;79.40
975;DHT22;6115;49.296;10.602;2022-09-16T16:04:34;12.10;77.90
975;DHT22;6115;49.296;10.602;2022-09-16T16:09:37;12.00;78.60
975;DHT22;6115;49.296;10.602;2022-09-16T16:14:39;12.10;78.90
975;DHT22;6115;49.296;10.602;2022-09-16T16:19:41;12.30;78.60
975;DHT22;6115;49.296;10.602;2022-09-16T16:24:42;12.30;77.50
975;DHT22;6115;49.296;10.602;2022-09-16T16:29:43;12.50;78.10
975;DHT22;6115;49.296;10.602;2022-09-16T16:34:47;12.60;77.50
975;DHT22;6115;49.296;10.602;2022-09-16T16:39:51;12.50;76.90
975;DHT22;6115;49.296;10.602;2022-09-16T16:44:52;12.50;76.90
975;DHT22;6115;49.296;10.602;2022-09-16T16:49:52;12.40;76.80
975;DHT22;6115;49.296;10.602;2022-09-16T16:54:53;12.40;77.50
975;DHT22;6115;49.296;10.602;2022-09-16T16:59:53;12.30;78.50
975;DHT22;6115;49.296;10.602;2022-09-16T17:04:54;12.20;79.70
975;DHT22;6115;49.296;10.602;2022-09-16T17:09:55;12.00;78.60
975;DHT22;6115;49.296;10.602;2022-09-16T17:14:59;11.60;76.10
975;DHT22;6115;49.296;10.602;2022-09-16T17:19:59;11.50;77.50
975;DHT22;6115;49.296;10.602;2022-09-16T17:25:03;11.40;78.20
975;DHT22;6115;49.296;10.602;2022-09-16T17:30:04;11.30;78.20
975;DHT22;6115;49.296;10.602;2022-09-16T17:35:05;11.20;78.40
975;DHT22;6115;49.296;10.602;2022-09-16T17:40:06;11.20;78.70
975;DHT22;6115;49.296;10.602;2022-09-16T17:45:07;11.20;78.90
975;DHT22;6115;49.296;10.602;2022-09-16T17:50:07;11.20;79.30
975;DHT22;6115;49.296;10.602;2022-09-16T17:55:08;11.10;79.20
975;DHT22;6115;49.296;10.602;2022-09-16T18:00:09;11.20;79.90
975;DHT22;6115;49.296;10.602;2022-09-16T18:05:10;11.20;80.00
975;DHT22;6115;49.296;10.602;2022-09-16T18:10:11;11.30;80.00
975;DHT22;6115;49.296;10.602;2022-09-16T18:15:12;11.30;80.00
975;DHT22;6115;49.296;10.602;2022-09-16T18:20:13;11.50;80.20
975;DHT22;6115;49.296;10.602;2022-09-16T18:25:13;11.40;80.10
975;DHT22;6115;49.296;10.602;2022-09-16T18:30:14;11.40;80.10
975;DHT22;6115;49.296;10.602;2022-09-16T18:35:15;11.30;80.10
975;DHT22;6115;49.296;10.602;2022-09-16T18:40:17;11.20;79.90
975;DHT22;6115;49.296;10.602;2022-09-16T18:45:17;11.20;79.90
975;DHT22;6115;49.296;10.602;2022-09-16T18:50:18;11.20;80.00
975;DHT22;6115;49.296;10.602;2022-09-16T18:55:19;11.30;80.00
975;DHT22;6115;49.296;10.602;2022-09-16T19:00:20;11.20;79.90
975;DHT22;6115;49.296;10.602;2022-09-16T19:05:20;11.10;79.80
975;DHT22;6115;49.296;10.602;2022-09-16T19:10:21;11.10;79.80
975;DHT22;6115;49.296;10.602;2022-09-16T19:15:22;11.00;79.70
975;DHT22;6115;49.296;10.602;2022-09-16T19:20:23;11.00;79.80
975;DHT22;6115;49.296;10.602;2022-09-16T19:25:23;10.90;79.60
975;DHT22;6115;49.296;10.602;2022-09-16T19:30:24;10.80;79.00
975;DHT22;6115;49.296;10.602;2022-09-16T19:35:29;10.70;78.60
975;DHT22;6115;49.296;10.602;2022-09-16T19:40:30;10.50;78.80
975;DHT22;6115;49.296;10.602;2022-09-16T19:45:32;10.40;79.10
975;DHT22;6115;49.296;10.602;2022-09-16T19:50:32;10.30;79.00
975;DHT22;6115;49.296;10.602;2022-09-16T19:55:33;10.30;79.10
975;DHT22;6115;49.296;10.602;2022-09-16T20:00:34;10.30;79.20
975;DHT22;6115;49.296;10.602;2022-09-16T20:05:35;10.20;79.40
975;DHT22;6115;49.296;10.602;2022-09-16T20:10:35;10.20;79.70
975;DHT22;6115;49.296;10.602;2022-09-16T20:15:36;10.10;79.80
975;DHT22;6115;49.296;10.602;2022-09-16T20:20:36;10.10;80.10
975;DHT22;6115;49.296;10.602;2022-09-16T20:25:37;10.00;80.40
975;DHT22;6115;49.296;10.602;2022-09-16T20:30:37;9.90;81.80
975;DHT22;6115;49.296;10.602;2022-09-16T20:35:38;9.90;82.20
975;DHT22;6115;49.296;10.602;2022-09-16T20:40:39;9.90;82.10
975;DHT22;6115;49.296;10.602;2022-09-16T20:45:40;9.90;83.20
975;DHT22;6115;49.296;10.602;2022-09-16T20:50:40;9.90;82.20
975;DHT22;6115;49.296;10.602;2022-09-16T20:55:41;9.90;82.30
975;DHT22;6115;49.296;10.602;2022-09-16T21:00:41;9.80;82.30
975;DHT22;6115;49.296;10.602;2022-09-16T21:05:43;9.80;82.30
975;DHT22;6115;49.296;10.602;2022-09-16T21:10:44;9.80;82.20
975;DHT22;6115;49.296;10.602;2022-09-16T21:15:56;9.80;82.20
975;DHT22;6115;49.296;10.602;2022-09-16T21:20:59;9.80;82.10
975;DHT22;6115;49.296;10.602;2022-09-16T21:26:13;9.80;82.10
975;DHT22;6115;49.296;10.602;2022-09-16T21:31:14;9.70;81.80
975;DHT22;6115;49.296;10.602;2022-09-16T21:36:15;9.70;81.50
975;DHT22;6115;49.296;10.602;2022-09-16T21:41:18;9.60;81.10
975;DHT22;6115;49.296;10.602;2022-09-16T21:46:26;9.50;80.80
975;DHT22;6115;49.296;10.602;2022-09-16T21:51:33;9.40;80.80
975;DHT22;6115;49.296;10.602;2022-09-16T21:56:38;9.40;80.80
975;DHT22;6115;49.296;10.602;2022-09-16T22:01:39;9.40;80.60
975;DHT22;6115;49.296;10.602;2022-09-16T22:06:40;9.30;80.10
975;DHT22;6115;49.296;10.602;2022-09-16T22:11:41;9.20;80.10
975;DHT22;6115;49.296;10.602;2022-09-16T22:16:42;9.20;80.10
975;DHT22;6115;49.296;10.602;2022-09-16T22:21:44;9.20;79.90
975;DHT22;6115;49.296;10.602;2022-09-16T22:26:46;9.10;79.70
975;DHT22;6115;49.296;10.602;2022-09-16T22:31:47;9.00;79.70
975;DHT22;6115;49.296;10.602;2022-09-16T22:36:47;9.00;79.70
975;DHT22;6115;49.296;10.602;2022-09-16T22:41:48;9.00;79.70
975;DHT22;6115;49.296;10.602;2022-09-16T22:46:48;8.90;79.80
975;DHT22;6115;49.296;10.602;2022-09-16T22:51:49;8.90;79.80
975;DHT22;6115;49.296;10.602;2022-09-16T22:56:49;8.90;79.60
975;DHT22;6115;49.296;10.602;2022-09-16T23:01:50;8.80;79.40
975;DHT22;6115;49.296;10.602;2022-09-16T23:06:51;8.80;79.40
975;DHT22;6115;49.296;10.602;2022-09-16T23:11:51;8.60;79.40
975;DHT22;6115;49.296;10.602;2022-09-16T23:16:52;8.50;79.70
975;DHT22;6115;49.296;10.602;2022-09-16T23:21:56;8.40;80.10
975;DHT22;6115;49.296;10.602;2022-09-16T23:26:56;8.40;80.20
975;DHT22;6115;49.296;10.602;2022-09-16T23:31:57;8.50;80.40
975;DHT22;6115;49.296;10.602;2022-09-16T23:37:01;8.50;80.60
975;DHT22;6115;49.296;10.602;2022-09-16T23:42:02;8.60;80.80
975;DHT22;6115;49.296;10.602;2022-09-16T23:47:03;8.60;81.00
975;DHT22;6115;49.296;10.602;2022-09-16T23:52:03;8.70;81.10
975;DHT22;6115;49.296;10.602;2022-09-16T23:57:04;8.70;81.20
